San Luis Valley Regional Bergman Field
KALS : now visible

Airfield :











YOU CAN JOIN US ON...

 
LOGIN :

Register | Disclaimer

   EN    FR    IT 

 









Legend :    VFR   Marginal VFR   IFR   Intensive IFR   Very Intensive IFR
Visi :
Ceiling :
>= 8 km
>= 3000ft
5 to 8 km
1000 to 3000 ft
1500m to 5 km
500 to 1000 ft
800 to 1500m
200 to 500 ft
< 800m
< 200 ft
Symbols :   Thunderstorms  Fog  Heavy snow  Heavy precipitations  Wind > 20 kt






- Airport Elevation : 7539 ft


KALS - San Luis Valley Regional Bergman Field

CURRENT METAR :
  • 231352Z AUTO 16004KT 10SM CLR 06/M05 A3014 RMK AO2 SLP144 T00561050

EXPIRED METARs :
  • 231252Z AUTO 00000KT 10SM CLR M01/M06 A3012 RMK AO2 SLP146 T10061061
  • 231152Z AUTO 00000KT 10SM CLR M02/M08 A3010 RMK AO2 SLP141 T10221078 10072 21022 53012
  • 231052Z AUTO 00000KT 10SM CLR 00/M07 A3008 RMK AO2 SLP124 T00001067
  • 230952Z AUTO 19003KT 10SM CLR M01/M07 A3007 RMK AO2 SLP120 T10061067

TAF KALS
Valid from the 23 at 12:00 until the 24 at 12:00 UTC


231203Z 2312/2412 17005KT P6SM FEW250
FM231700 25009KT P6SM FEW120
FM232100 23012G22KT P6SM SCT100
FM240300 19010KT P6SM FEW100 SCT220
FM240700 15007KT P6SM SKC
KZDV FIR / North America



MET'MAP, your aeronautical weather chart ! - Copyright ORBIFLY December 2007 - Disclaimer

ORBIFLY MET'MAP TEAM :

Programming & Development : Alexandra Zaïnal
Original concept : Baudouin d'Aumeries
Technical & hardware support : Manuel Goepfert
Assistance : Marc-Olivier Méhu




SOURCES & CREDITS :

   NOAA       Earth
Advisory